TGW740 WSSS-VOCB
Flight info
| Callsign | TGW740 |
|---|---|
| Flight time | N/A |
| Altitude | 32000 |
| Route | MIBEL1B MIBEL L762 MOZES M300 MDI R461 CCB DCT |
| Aircraft | A21N/M-SDE2E3FGHIRWXY/LB1 |
Departure
| Time | 2026-05-01 09:57 |
|---|---|
| Airport | Singapore Changi Airport (WSSS) |
Arrival
| Time | N/A |
|---|---|
| Airport | Coimbatore International Airport (VOCB) |
| Time | Latitude | Longitude | Altitude | Speed | Heading |
|---|---|---|---|---|---|
| 2026-05-01 09:41 | 1.36059 | 103.99246 | 36 ft | 0 kts | 294° |
| 2026-05-01 09:45 | 1.36049 | 103.99288 | 36 ft | 4 kts | 284° |
| 2026-05-01 09:45 | 1.36038 | 103.99309 | 36 ft | 4 kts | 317° |
| 2026-05-01 09:46 | 1.36016 | 103.99319 | 36 ft | 4 kts | 2° |
| 2026-05-01 09:46 | 1.35993 | 103.99313 | 36 ft | 4 kts | 23° |
| 2026-05-01 09:46 | 1.35968 | 103.99302 | 36 ft | 4 kts | 23° |
| 2026-05-01 09:46 | 1.35954 | 103.99296 | 36 ft | 0 kts | 23° |
| 2026-05-01 09:51 | 1.35986 | 103.99309 | 36 ft | 9 kts | 16° |
| 2026-05-01 09:51 | 1.36049 | 103.99336 | 36 ft | 10 kts | 25° |
| 2026-05-01 09:51 | 1.36117 | 103.99366 | 36 ft | 11 kts | 23° |
| 2026-05-01 09:52 | 1.36190 | 103.99396 | 36 ft | 12 kts | 22° |
| 2026-05-01 09:52 | 1.36267 | 103.99431 | 36 ft | 12 kts | 41° |
| 2026-05-01 09:52 | 1.36325 | 103.99498 | 36 ft | 13 kts | 53° |
| 2026-05-01 09:52 | 1.36380 | 103.99573 | 36 ft | 14 kts | 52° |
| 2026-05-01 09:53 | 1.36409 | 103.99590 | 36 ft | 3 kts | 24° |
| 2026-05-01 09:53 | 1.36433 | 103.99602 | 36 ft | 5 kts | 26° |
| 2026-05-01 09:53 | 1.36464 | 103.99629 | 36 ft | 7 kts | 75° |
| 2026-05-01 09:53 | 1.36465 | 103.99634 | 36 ft | 0 kts | 76° |
| 2026-05-01 09:54 | 1.36460 | 103.99667 | 36 ft | 9 kts | 114° |
| 2026-05-01 09:55 | 1.36440 | 103.99727 | 36 ft | 9 kts | 112° |
| 2026-05-01 09:55 | 1.36414 | 103.99790 | 36 ft | 10 kts | 112° |
| 2026-05-01 09:55 | 1.36382 | 103.99855 | 36 ft | 11 kts | 132° |
| 2026-05-01 09:55 | 1.36318 | 103.99874 | 36 ft | 10 kts | 169° |
| 2026-05-01 09:56 | 1.36151 | 103.99883 | 36 ft | 50 kts | 190° |
| 2026-05-01 09:56 | 1.35624 | 103.99656 | 36 ft | 115 kts | 203° |
| 2026-05-01 09:56 | 1.34696 | 103.99265 | 36 ft | 171 kts | 203° |
| 2026-05-01 09:56 | 1.33514 | 103.98762 | 330 ft | 183 kts | 204° |
| 2026-05-01 09:57 | 1.32326 | 103.98267 | 840 ft | 186 kts | 202° |
| 2026-05-01 09:57 | 1.31117 | 103.97757 | 1305 ft | 194 kts | 202° |
| 2026-05-01 09:57 | 1.29832 | 103.97212 | 1646 ft | 207 kts | 202° |
| 2026-05-01 09:57 | 1.28471 | 103.96633 | 2059 ft | 218 kts | 202° |
| 2026-05-01 09:58 | 1.27026 | 103.96020 | 2408 ft | 235 kts | 202° |
| 2026-05-01 09:58 | 1.25479 | 103.95366 | 2673 ft | 254 kts | 202° |
| 2026-05-01 09:58 | 1.23795 | 103.94657 | 3094 ft | 269 kts | 202° |
| 2026-05-01 09:58 | 1.22052 | 103.93915 | 3698 ft | 274 kts | 203° |
| 2026-05-01 09:59 | 1.20304 | 103.93138 | 4408 ft | 275 kts | 203° |
| 2026-05-01 09:59 | 1.18548 | 103.92353 | 5088 ft | 277 kts | 203° |
| 2026-05-01 09:59 | 1.17382 | 103.91834 | 5534 ft | 277 kts | 203° |
| 2026-05-01 09:59 | 1.15003 | 103.90780 | 6401 ft | 281 kts | 202° |
| 2026-05-01 10:00 | 1.13821 | 103.90257 | 6768 ft | 282 kts | 202° |
| 2026-05-01 10:00 | 1.11396 | 103.89186 | 7557 ft | 286 kts | 202° |
| 2026-05-01 10:00 | 1.10186 | 103.88650 | 7940 ft | 288 kts | 202° |
| 2026-05-01 10:00 | 1.07737 | 103.87567 | 8696 ft | 292 kts | 202° |
| 2026-05-01 10:01 | 1.05873 | 103.86741 | 9255 ft | 295 kts | 202° |
| 2026-05-01 10:01 | 1.04604 | 103.86179 | 9652 ft | 297 kts | 202° |
| 2026-05-01 10:01 | 1.02705 | 103.85339 | 10145 ft | 301 kts | 202° |
| 2026-05-01 10:01 | 1.00752 | 103.84477 | 10419 ft | 313 kts | 202° |